sensor_id;sensor_type;location;lat;lon;timestamp;P1;durP1;ratioP1;P2;durP2;ratioP2
60068;SDS011;45945;53.350;55.922;2023-04-03T00:00:16;3.53;;;1.02;;
60068;SDS011;45945;53.350;55.922;2023-04-03T00:01:17;3.00;;;0.95;;
60068;SDS011;45945;53.350;55.922;2023-04-03T00:02:18;3.55;;;0.90;;
60068;SDS011;45945;53.350;55.922;2023-04-03T00:03:19;3.63;;;1.05;;
60068;SDS011;45945;53.350;55.922;2023-04-03T00:04:20;5.47;;;0.90;;
60068;SDS011;45945;53.350;55.922;2023-04-03T00:05:21;3.17;;;1.00;;
60068;SDS011;45945;53.350;55.922;2023-04-03T00:06:22;2.80;;;1.23;;
60068;SDS011;45945;53.350;55.922;2023-04-03T00:07:23;4.07;;;0.77;;
60068;SDS011;45945;53.350;55.922;2023-04-03T00:08:24;3.55;;;0.90;;
60068;SDS011;45945;53.350;55.922;2023-04-03T00:09:24;4.07;;;0.90;;
60068;SDS011;45945;53.350;55.922;2023-04-03T00:10:25;5.47;;;1.00;;
60068;SDS011;45945;53.350;55.922;2023-04-03T00:11:26;3.67;;;1.05;;
60068;SDS011;45945;53.350;55.922;2023-04-03T00:12:27;3.47;;;1.17;;
60068;SDS011;45945;53.350;55.922;2023-04-03T00:13:27;3.83;;;1.05;;
60068;SDS011;45945;53.350;55.922;2023-04-03T00:14:28;3.60;;;0.90;;
60068;SDS011;45945;53.350;55.922;2023-04-03T00:15:30;4.13;;;0.93;;
60068;SDS011;45945;53.350;55.922;2023-04-03T00:16:31;3.50;;;1.15;;
60068;SDS011;45945;53.350;55.922;2023-04-03T00:17:31;4.30;;;1.02;;
60068;SDS011;45945;53.350;55.922;2023-04-03T00:18:32;2.75;;;1.00;;
60068;SDS011;45945;53.350;55.922;2023-04-03T00:19:33;2.95;;;0.73;;
60068;SDS011;45945;53.350;55.922;2023-04-03T00:20:34;3.47;;;1.00;;
60068;SDS011;45945;53.350;55.922;2023-04-03T00:21:35;2.60;;;0.80;;
60068;SDS011;45945;53.350;55.922;2023-04-03T00:22:36;4.18;;;1.10;;
60068;SDS011;45945;53.350;55.922;2023-04-03T00:23:37;3.83;;;1.00;;
60068;SDS011;45945;53.350;55.922;2023-04-03T00:24:37;4.20;;;1.05;;
60068;SDS011;45945;53.350;55.922;2023-04-03T00:25:39;3.67;;;0.82;;
60068;SDS011;45945;53.350;55.922;2023-04-03T00:26:39;3.42;;;0.90;;
60068;SDS011;45945;53.350;55.922;2023-04-03T00:27:41;5.65;;;1.23;;
60068;SDS011;45945;53.350;55.922;2023-04-03T00:28:41;3.22;;;1.10;;
60068;SDS011;45945;53.350;55.922;2023-04-03T00:29:42;4.40;;;0.90;;
60068;SDS011;45945;53.350;55.922;2023-04-03T00:30:43;2.85;;;1.00;;
60068;SDS011;45945;53.350;55.922;2023-04-03T00:31:44;5.13;;;1.48;;
60068;SDS011;45945;53.350;55.922;2023-04-03T00:32:47;5.60;;;1.13;;
60068;SDS011;45945;53.350;55.922;2023-04-03T00:33:48;4.05;;;1.25;;
60068;SDS011;45945;53.350;55.922;2023-04-03T00:34:49;5.50;;;1.52;;
60068;SDS011;45945;53.350;55.922;2023-04-03T00:35:50;3.55;;;1.00;;
60068;SDS011;45945;53.350;55.922;2023-04-03T00:36:51;6.45;;;1.10;;
60068;SDS011;45945;53.350;55.922;2023-04-03T00:37:53;4.57;;;1.00;;
60068;SDS011;45945;53.350;55.922;2023-04-03T00:38:54;5.32;;;1.95;;
60068;SDS011;45945;53.350;55.922;2023-04-03T00:39:55;5.88;;;1.50;;
60068;SDS011;45945;53.350;55.922;2023-04-03T00:40:56;3.45;;;0.98;;
60068;SDS011;45945;53.350;55.922;2023-04-03T00:41:57;6.70;;;1.35;;
60068;SDS011;45945;53.350;55.922;2023-04-03T00:42:58;5.10;;;1.30;;
60068;SDS011;45945;53.350;55.922;2023-04-03T00:43:59;4.85;;;1.20;;
60068;SDS011;45945;53.350;55.922;2023-04-03T00:46:04;3.55;;;1.10;;
60068;SDS011;45945;53.350;55.922;2023-04-03T00:47:05;5.50;;;1.90;;
60068;SDS011;45945;53.350;55.922;2023-04-03T00:48:08;2.70;;;0.95;;
60068;SDS011;45945;53.350;55.922;2023-04-03T00:49:12;4.47;;;1.20;;
60068;SDS011;45945;53.350;55.922;2023-04-03T00:50:13;4.63;;;1.15;;
60068;SDS011;45945;53.350;55.922;2023-04-03T00:51:24;3.75;;;1.10;;
60068;SDS011;45945;53.350;55.922;2023-04-03T00:52:27;3.42;;;0.93;;
60068;SDS011;45945;53.350;55.922;2023-04-03T00:53:31;4.22;;;1.20;;
60068;SDS011;45945;53.350;55.922;2023-04-03T00:54:33;4.40;;;1.15;;
60068;SDS011;45945;53.350;55.922;2023-04-03T00:55:35;4.57;;;0.98;;
60068;SDS011;45945;53.350;55.922;2023-04-03T00:56:37;5.95;;;1.13;;
60068;SDS011;45945;53.350;55.922;2023-04-03T00:57:37;5.57;;;1.40;;
60068;SDS011;45945;53.350;55.922;2023-04-03T00:58:58;7.10;;;1.25;;
60068;SDS011;45945;53.350;55.922;2023-04-03T01:00:02;5.55;;;1.42;;
60068;SDS011;45945;53.350;55.922;2023-04-03T01:01:06;4.18;;;1.20;;
60068;SDS011;45945;53.350;55.922;2023-04-03T01:02:08;4.38;;;1.25;;
60068;SDS011;45945;53.350;55.922;2023-04-03T01:03:09;4.18;;;1.20;;
60068;SDS011;45945;53.350;55.922;2023-04-03T01:04:28;6.78;;;1.38;;
60068;SDS011;45945;53.350;55.922;2023-04-03T01:05:30;4.07;;;1.00;;
60068;SDS011;45945;53.350;55.922;2023-04-03T01:06:34;3.83;;;1.30;;
60068;SDS011;45945;53.350;55.922;2023-04-03T01:07:41;3.97;;;1.05;;
60068;SDS011;45945;53.350;55.922;2023-04-03T01:08:42;6.07;;;1.67;;
60068;SDS011;45945;53.350;55.922;2023-04-03T01:09:44;5.03;;;1.15;;
60068;SDS011;45945;53.350;55.922;2023-04-03T01:10:45;9.60;;;1.50;;
60068;SDS011;45945;53.350;55.922;2023-04-03T01:11:47;5.85;;;1.60;;
60068;SDS011;45945;53.350;55.922;2023-04-03T01:12:49;4.70;;;1.33;;
60068;SDS011;45945;53.350;55.922;2023-04-03T01:13:50;4.57;;;1.10;;
60068;SDS011;45945;53.350;55.922;2023-04-03T01:14:53;4.95;;;1.40;;
60068;SDS011;45945;53.350;55.922;2023-04-03T01:15:54;8.20;;;2.58;;
60068;SDS011;45945;53.350;55.922;2023-04-03T01:16:55;6.28;;;1.40;;
60068;SDS011;45945;53.350;55.922;2023-04-03T01:17:57;4.65;;;1.10;;
60068;SDS011;45945;53.350;55.922;2023-04-03T01:18:58;6.68;;;1.50;;
60068;SDS011;45945;53.350;55.922;2023-04-03T01:22:34;5.70;;;1.70;;
60068;SDS011;45945;53.350;55.922;2023-04-03T01:25:00;5.88;;;1.20;;
60068;SDS011;45945;53.350;55.922;2023-04-03T01:26:01;7.53;;;1.45;;
60068;SDS011;45945;53.350;55.922;2023-04-03T01:27:04;8.43;;;1.80;;
60068;SDS011;45945;53.350;55.922;2023-04-03T01:28:06;5.80;;;1.30;;
60068;SDS011;45945;53.350;55.922;2023-04-03T01:29:07;11.07;;;1.52;;
60068;SDS011;45945;53.350;55.922;2023-04-03T01:30:08;8.20;;;2.10;;
60068;SDS011;45945;53.350;55.922;2023-04-03T01:31:26;10.50;;;1.80;;
60068;SDS011;45945;53.350;55.922;2023-04-03T01:32:29;54.05;;;27.05;;
60068;SDS011;45945;53.350;55.922;2023-04-03T01:33:30;8.93;;;2.22;;
60068;SDS011;45945;53.350;55.922;2023-04-03T01:34:31;8.82;;;2.88;;
60068;SDS011;45945;53.350;55.922;2023-04-03T01:35:33;7.88;;;2.20;;
60068;SDS011;45945;53.350;55.922;2023-04-03T01:36:34;11.70;;;2.42;;
60068;SDS011;45945;53.350;55.922;2023-04-03T01:37:34;13.85;;;3.90;;
60068;SDS011;45945;53.350;55.922;2023-04-03T01:38:36;6.80;;;1.80;;
60068;SDS011;45945;53.350;55.922;2023-04-03T01:39:36;12.73;;;3.38;;
60068;SDS011;45945;53.350;55.922;2023-04-03T01:40:37;12.68;;;3.20;;
60068;SDS011;45945;53.350;55.922;2023-04-03T01:41:39;19.67;;;5.40;;
60068;SDS011;45945;53.350;55.922;2023-04-03T01:42:56;11.93;;;3.10;;
60068;SDS011;45945;53.350;55.922;2023-04-03T01:43:57;15.70;;;3.75;;
60068;SDS011;45945;53.350;55.922;2023-04-03T01:44:58;18.05;;;4.15;;
60068;SDS011;45945;53.350;55.922;2023-04-03T01:45:59;19.85;;;4.85;;
60068;SDS011;45945;53.350;55.922;2023-04-03T01:47:00;19.10;;;4.40;;
60068;SDS011;45945;53.350;55.922;2023-04-03T01:48:02;17.52;;;4.93;;
60068;SDS011;45945;53.350;55.922;2023-04-03T01:49:04;19.63;;;3.67;;
60068;SDS011;45945;53.350;55.922;2023-04-03T01:50:05;23.88;;;3.72;;
60068;SDS011;45945;53.350;55.922;2023-04-03T01:51:08;22.92;;;5.47;;
60068;SDS011;45945;53.350;55.922;2023-04-03T01:52:09;24.17;;;5.13;;
60068;SDS011;45945;53.350;55.922;2023-04-03T01:53:11;23.35;;;5.80;;
60068;SDS011;45945;53.350;55.922;2023-04-03T01:54:12;35.88;;;5.95;;
60068;SDS011;45945;53.350;55.922;2023-04-03T01:55:13;28.27;;;5.93;;
60068;SDS011;45945;53.350;55.922;2023-04-03T01:56:14;36.45;;;8.80;;
60068;SDS011;45945;53.350;55.922;2023-04-03T01:57:14;34.88;;;8.52;;
60068;SDS011;45945;53.350;55.922;2023-04-03T01:58:16;37.05;;;6.38;;
60068;SDS011;45945;53.350;55.922;2023-04-03T01:59:17;35.50;;;6.18;;
60068;SDS011;45945;53.350;55.922;2023-04-03T02:00:19;28.15;;;5.30;;
60068;SDS011;45945;53.350;55.922;2023-04-03T02:01:20;33.58;;;6.25;;
60068;SDS011;45945;53.350;55.922;2023-04-03T02:02:22;31.70;;;6.28;;
60068;SDS011;45945;53.350;55.922;2023-04-03T02:03:22;37.28;;;5.70;;
60068;SDS011;45945;53.350;55.922;2023-04-03T02:04:23;26.77;;;5.10;;
60068;SDS011;45945;53.350;55.922;2023-04-03T02:05:24;35.45;;;6.80;;
60068;SDS011;45945;53.350;55.922;2023-04-03T02:06:25;36.58;;;5.55;;
60068;SDS011;45945;53.350;55.922;2023-04-03T02:07:27;37.08;;;6.47;;
60068;SDS011;45945;53.350;55.922;2023-04-03T02:08:28;40.80;;;11.13;;
60068;SDS011;45945;53.350;55.922;2023-04-03T02:09:29;86.00;;;31.52;;
60068;SDS011;45945;53.350;55.922;2023-04-03T02:10:30;17.73;;;4.82;;
60068;SDS011;45945;53.350;55.922;2023-04-03T02:11:31;29.40;;;4.80;;
60068;SDS011;45945;53.350;55.922;2023-04-03T02:12:32;34.97;;;6.38;;
60068;SDS011;45945;53.350;55.922;2023-04-03T02:13:33;26.92;;;5.70;;
60068;SDS011;45945;53.350;55.922;2023-04-03T02:14:34;42.13;;;7.30;;
60068;SDS011;45945;53.350;55.922;2023-04-03T02:15:37;42.05;;;7.95;;
60068;SDS011;45945;53.350;55.922;2023-04-03T02:16:40;27.50;;;4.95;;
60068;SDS011;45945;53.350;55.922;2023-04-03T02:17:41;26.98;;;5.05;;
60068;SDS011;45945;53.350;55.922;2023-04-03T02:18:42;37.50;;;6.57;;
60068;SDS011;45945;53.350;55.922;2023-04-03T02:19:43;22.90;;;5.38;;
60068;SDS011;45945;53.350;55.922;2023-04-03T02:20:45;12.10;;;2.78;;
60068;SDS011;45945;53.350;55.922;2023-04-03T02:21:46;37.28;;;9.38;;
60068;SDS011;45945;53.350;55.922;2023-04-03T02:22:49;39.85;;;8.45;;
60068;SDS011;45945;53.350;55.922;2023-04-03T02:23:50;10.68;;;2.30;;
60068;SDS011;45945;53.350;55.922;2023-04-03T02:24:50;8.98;;;2.53;;
60068;SDS011;45945;53.350;55.922;2023-04-03T02:25:52;10.25;;;2.17;;
60068;SDS011;45945;53.350;55.922;2023-04-03T02:26:53;7.68;;;1.38;;
60068;SDS011;45945;53.350;55.922;2023-04-03T02:27:54;10.48;;;2.45;;
60068;SDS011;45945;53.350;55.922;2023-04-03T02:28:55;8.65;;;2.25;;
60068;SDS011;45945;53.350;55.922;2023-04-03T02:29:56;9.57;;;2.40;;
60068;SDS011;45945;53.350;55.922;2023-04-03T02:30:56;14.65;;;2.55;;
60068;SDS011;45945;53.350;55.922;2023-04-03T02:31:57;8.68;;;2.20;;
60068;SDS011;45945;53.350;55.922;2023-04-03T02:32:59;14.27;;;2.35;;
60068;SDS011;45945;53.350;55.922;2023-04-03T02:34:01;11.63;;;2.97;;
60068;SDS011;45945;53.350;55.922;2023-04-03T02:35:02;11.27;;;2.83;;
60068;SDS011;45945;53.350;55.922;2023-04-03T02:36:04;18.50;;;2.85;;
60068;SDS011;45945;53.350;55.922;2023-04-03T02:37:05;8.70;;;2.83;;
60068;SDS011;45945;53.350;55.922;2023-04-03T02:38:06;10.30;;;2.20;;
60068;SDS011;45945;53.350;55.922;2023-04-03T02:39:08;8.75;;;1.67;;
60068;SDS011;45945;53.350;55.922;2023-04-03T02:40:09;15.88;;;2.78;;
60068;SDS011;45945;53.350;55.922;2023-04-03T02:41:13;17.83;;;3.67;;
60068;SDS011;45945;53.350;55.922;2023-04-03T02:42:14;7.45;;;1.60;;
60068;SDS011;45945;53.350;55.922;2023-04-03T02:43:15;10.80;;;2.17;;
60068;SDS011;45945;53.350;55.922;2023-04-03T02:44:17;12.77;;;2.78;;
60068;SDS011;45945;53.350;55.922;2023-04-03T02:45:20;14.82;;;2.40;;
60068;SDS011;45945;53.350;55.922;2023-04-03T02:46:21;8.85;;;2.15;;
60068;SDS011;45945;53.350;55.922;2023-04-03T02:47:22;12.55;;;2.33;;
60068;SDS011;45945;53.350;55.922;2023-04-03T02:48:23;11.55;;;2.70;;
60068;SDS011;45945;53.350;55.922;2023-04-03T02:49:24;12.02;;;2.72;;
60068;SDS011;45945;53.350;55.922;2023-04-03T02:50:25;20.02;;;3.70;;
60068;SDS011;45945;53.350;55.922;2023-04-03T02:51:26;14.80;;;2.75;;
60068;SDS011;45945;53.350;55.922;2023-04-03T02:52:27;15.45;;;2.83;;
60068;SDS011;45945;53.350;55.922;2023-04-03T02:53:31;14.23;;;2.55;;
60068;SDS011;45945;53.350;55.922;2023-04-03T02:54:36;11.73;;;2.13;;
60068;SDS011;45945;53.350;55.922;2023-04-03T02:55:40;23.58;;;3.22;;
60068;SDS011;45945;53.350;55.922;2023-04-03T02:56:40;23.23;;;2.72;;
60068;SDS011;45945;53.350;55.922;2023-04-03T02:57:41;13.02;;;2.42;;
60068;SDS011;45945;53.350;55.922;2023-04-03T02:58:43;15.15;;;2.22;;
60068;SDS011;45945;53.350;55.922;2023-04-03T02:59:44;19.40;;;2.88;;
60068;SDS011;45945;53.350;55.922;2023-04-03T03:00:45;14.75;;;3.00;;
60068;SDS011;45945;53.350;55.922;2023-04-03T03:01:47;23.10;;;3.75;;
60068;SDS011;45945;53.350;55.922;2023-04-03T03:02:48;15.07;;;3.40;;
60068;SDS011;45945;53.350;55.922;2023-04-03T03:03:49;13.70;;;2.25;;
60068;SDS011;45945;53.350;55.922;2023-04-03T03:04:50;21.83;;;3.92;;
60068;SDS011;45945;53.350;55.922;2023-04-03T03:06:00;17.13;;;3.13;;
60068;SDS011;45945;53.350;55.922;2023-04-03T03:07:01;15.80;;;3.65;;
60068;SDS011;45945;53.350;55.922;2023-04-03T03:08:03;23.60;;;3.45;;
60068;SDS011;45945;53.350;55.922;2023-04-03T03:09:04;19.67;;;2.78;;
60068;SDS011;45945;53.350;55.922;2023-04-03T03:10:06;17.00;;;2.65;;
60068;SDS011;45945;53.350;55.922;2023-04-03T03:11:07;15.43;;;2.72;;
60068;SDS011;45945;53.350;55.922;2023-04-03T03:12:08;13.43;;;2.42;;
60068;SDS011;45945;53.350;55.922;2023-04-03T03:13:09;13.23;;;2.40;;
60068;SDS011;45945;53.350;55.922;2023-04-03T03:14:10;15.82;;;3.05;;
60068;SDS011;45945;53.350;55.922;2023-04-03T03:15:11;17.38;;;2.88;;
60068;SDS011;45945;53.350;55.922;2023-04-03T03:16:12;19.52;;;2.67;;
60068;SDS011;45945;53.350;55.922;2023-04-03T03:17:13;15.93;;;2.35;;
60068;SDS011;45945;53.350;55.922;2023-04-03T03:18:14;17.73;;;2.78;;
60068;SDS011;45945;53.350;55.922;2023-04-03T03:19:15;12.77;;;3.10;;
60068;SDS011;45945;53.350;55.922;2023-04-03T03:20:17;13.05;;;2.05;;
60068;SDS011;45945;53.350;55.922;2023-04-03T03:21:19;16.10;;;2.90;;
60068;SDS011;45945;53.350;55.922;2023-04-03T03:22:20;15.95;;;2.60;;
60068;SDS011;45945;53.350;55.922;2023-04-03T03:23:21;15.77;;;2.50;;
60068;SDS011;45945;53.350;55.922;2023-04-03T03:24:23;9.25;;;1.90;;
60068;SDS011;45945;53.350;55.922;2023-04-03T03:25:24;10.60;;;1.90;;
60068;SDS011;45945;53.350;55.922;2023-04-03T03:26:25;12.05;;;1.90;;
60068;SDS011;45945;53.350;55.922;2023-04-03T03:27:27;11.15;;;1.73;;
60068;SDS011;45945;53.350;55.922;2023-04-03T03:28:28;13.40;;;1.80;;
60068;SDS011;45945;53.350;55.922;2023-04-03T03:29:29;12.18;;;1.90;;
60068;SDS011;45945;53.350;55.922;2023-04-03T03:30:30;12.15;;;2.47;;
60068;SDS011;45945;53.350;55.922;2023-04-03T03:31:31;3.88;;;1.35;;
60068;SDS011;45945;53.350;55.922;2023-04-03T03:32:32;10.65;;;1.58;;
60068;SDS011;45945;53.350;55.922;2023-04-03T03:33:33;8.93;;;1.98;;
60068;SDS011;45945;53.350;55.922;2023-04-03T03:34:34;9.65;;;1.50;;
60068;SDS011;45945;53.350;55.922;2023-04-03T03:35:35;6.18;;;1.90;;
60068;SDS011;45945;53.350;55.922;2023-04-03T03:36:36;10.00;;;1.50;;
60068;SDS011;45945;53.350;55.922;2023-04-03T03:37:37;11.68;;;1.50;;
60068;SDS011;45945;53.350;55.922;2023-04-03T03:38:38;6.47;;;1.48;;
60068;SDS011;45945;53.350;55.922;2023-04-03T03:39:40;5.70;;;1.30;;
60068;SDS011;45945;53.350;55.922;2023-04-03T03:40:40;4.72;;;1.33;;
60068;SDS011;45945;53.350;55.922;2023-04-03T03:41:42;5.40;;;1.30;;
60068;SDS011;45945;53.350;55.922;2023-04-03T03:42:43;6.07;;;1.38;;
60068;SDS011;45945;53.350;55.922;2023-04-03T03:43:43;8.32;;;1.92;;
60068;SDS011;45945;53.350;55.922;2023-04-03T03:44:46;12.18;;;1.80;;
60068;SDS011;45945;53.350;55.922;2023-04-03T03:45:53;5.22;;;1.70;;
60068;SDS011;45945;53.350;55.922;2023-04-03T03:46:54;12.90;;;1.95;;
60068;SDS011;45945;53.350;55.922;2023-04-03T03:47:55;10.50;;;1.70;;
60068;SDS011;45945;53.350;55.922;2023-04-03T03:48:56;9.65;;;2.10;;
60068;SDS011;45945;53.350;55.922;2023-04-03T03:49:57;8.50;;;1.30;;
60068;SDS011;45945;53.350;55.922;2023-04-03T03:50:58;8.70;;;1.33;;
60068;SDS011;45945;53.350;55.922;2023-04-03T03:52:03;3.85;;;1.08;;
60068;SDS011;45945;53.350;55.922;2023-04-03T03:53:04;4.95;;;1.20;;
60068;SDS011;45945;53.350;55.922;2023-04-03T03:54:05;7.30;;;1.58;;
60068;SDS011;45945;53.350;55.922;2023-04-03T03:55:06;6.63;;;1.50;;
60068;SDS011;45945;53.350;55.922;2023-04-03T03:56:09;4.88;;;1.38;;
60068;SDS011;45945;53.350;55.922;2023-04-03T03:57:13;5.10;;;1.30;;
60068;SDS011;45945;53.350;55.922;2023-04-03T03:58:14;7.85;;;1.52;;
60068;SDS011;45945;53.350;55.922;2023-04-03T03:59:15;5.22;;;1.48;;
60068;SDS011;45945;53.350;55.922;2023-04-03T04:00:17;7.50;;;1.60;;
60068;SDS011;45945;53.350;55.922;2023-04-03T04:01:24;15.60;;;2.42;;
60068;SDS011;45945;53.350;55.922;2023-04-03T04:02:26;9.43;;;2.35;;
60068;SDS011;45945;53.350;55.922;2023-04-03T04:03:27;5.50;;;1.40;;
60068;SDS011;45945;53.350;55.922;2023-04-03T04:04:28;5.32;;;1.17;;
60068;SDS011;45945;53.350;55.922;2023-04-03T04:05:30;7.07;;;1.45;;
60068;SDS011;45945;53.350;55.922;2023-04-03T04:06:31;8.10;;;1.50;;
60068;SDS011;45945;53.350;55.922;2023-04-03T04:07:36;7.43;;;1.42;;
60068;SDS011;45945;53.350;55.922;2023-04-03T04:08:37;5.13;;;1.17;;
60068;SDS011;45945;53.350;55.922;2023-04-03T04:09:40;5.45;;;1.30;;
60068;SDS011;45945;53.350;55.922;2023-04-03T04:10:42;3.63;;;1.20;;
60068;SDS011;45945;53.350;55.922;2023-04-03T04:11:43;11.50;;;1.65;;
60068;SDS011;45945;53.350;55.922;2023-04-03T04:12:46;5.43;;;1.10;;
60068;SDS011;45945;53.350;55.922;2023-04-03T04:13:49;5.05;;;1.38;;
60068;SDS011;45945;53.350;55.922;2023-04-03T04:14:52;7.57;;;1.83;;
60068;SDS011;45945;53.350;55.922;2023-04-03T04:15:54;5.90;;;1.20;;
60068;SDS011;45945;53.350;55.922;2023-04-03T04:16:55;8.10;;;1.52;;
60068;SDS011;45945;53.350;55.922;2023-04-03T04:17:59;9.45;;;1.70;;
60068;SDS011;45945;53.350;55.922;2023-04-03T04:19:00;6.30;;;1.73;;
60068;SDS011;45945;53.350;55.922;2023-04-03T04:20:02;5.88;;;1.17;;
60068;SDS011;45945;53.350;55.922;2023-04-03T04:21:03;5.95;;;1.48;;
60068;SDS011;45945;53.350;55.922;2023-04-03T04:22:05;7.53;;;1.63;;
60068;SDS011;45945;53.350;55.922;2023-04-03T04:23:06;8.15;;;1.42;;
60068;SDS011;45945;53.350;55.922;2023-04-03T04:24:08;6.95;;;2.00;;
60068;SDS011;45945;53.350;55.922;2023-04-03T04:25:09;6.95;;;1.60;;
60068;SDS011;45945;53.350;55.922;2023-04-03T04:26:11;3.97;;;1.27;;
60068;SDS011;45945;53.350;55.922;2023-04-03T04:27:13;7.65;;;1.40;;
60068;SDS011;45945;53.350;55.922;2023-04-03T04:28:16;6.93;;;1.23;;
60068;SDS011;45945;53.350;55.922;2023-04-03T04:29:18;5.85;;;1.60;;
60068;SDS011;45945;53.350;55.922;2023-04-03T04:30:22;11.63;;;1.70;;
60068;SDS011;45945;53.350;55.922;2023-04-03T04:31:24;9.32;;;1.50;;
60068;SDS011;45945;53.350;55.922;2023-04-03T04:32:25;22.10;;;2.35;;
60068;SDS011;45945;53.350;55.922;2023-04-03T04:33:26;14.00;;;2.22;;
60068;SDS011;45945;53.350;55.922;2023-04-03T04:34:27;26.08;;;3.00;;
60068;SDS011;45945;53.350;55.922;2023-04-03T04:35:28;13.27;;;1.95;;
60068;SDS011;45945;53.350;55.922;2023-04-03T04:36:29;9.32;;;1.70;;
60068;SDS011;45945;53.350;55.922;2023-04-03T04:37:30;9.98;;;1.52;;
60068;SDS011;45945;53.350;55.922;2023-04-03T04:38:31;4.28;;;1.00;;
60068;SDS011;45945;53.350;55.922;2023-04-03T04:39:32;7.28;;;1.20;;
60068;SDS011;45945;53.350;55.922;2023-04-03T04:40:33;8.95;;;1.50;;
60068;SDS011;45945;53.350;55.922;2023-04-03T04:41:34;10.43;;;1.38;;
60068;SDS011;45945;53.350;55.922;2023-04-03T04:42:37;14.10;;;1.90;;
60068;SDS011;45945;53.350;55.922;2023-04-03T04:43:37;21.42;;;2.47;;
60068;SDS011;45945;53.350;55.922;2023-04-03T04:44:39;13.30;;;1.70;;
60068;SDS011;45945;53.350;55.922;2023-04-03T04:45:40;14.30;;;1.85;;
60068;SDS011;45945;53.350;55.922;2023-04-03T04:46:41;14.25;;;1.60;;
60068;SDS011;45945;53.350;55.922;2023-04-03T04:47:42;14.77;;;2.35;;
60068;SDS011;45945;53.350;55.922;2023-04-03T04:48:44;9.23;;;1.45;;
60068;SDS011;45945;53.350;55.922;2023-04-03T04:49:46;6.38;;;1.27;;
60068;SDS011;45945;53.350;55.922;2023-04-03T04:50:48;7.18;;;1.25;;
60068;SDS011;45945;53.350;55.922;2023-04-03T04:51:49;6.50;;;1.40;;
60068;SDS011;45945;53.350;55.922;2023-04-03T04:52:52;5.78;;;1.30;;
60068;SDS011;45945;53.350;55.922;2023-04-03T04:53:53;8.25;;;1.38;;
60068;SDS011;45945;53.350;55.922;2023-04-03T04:54:54;8.95;;;1.70;;
60068;SDS011;45945;53.350;55.922;2023-04-03T04:55:55;8.85;;;2.08;;
60068;SDS011;45945;53.350;55.922;2023-04-03T04:56:57;11.05;;;2.00;;
60068;SDS011;45945;53.350;55.922;2023-04-03T04:57:57;7.72;;;1.80;;
60068;SDS011;45945;53.350;55.922;2023-04-03T04:58:58;8.00;;;1.30;;
60068;SDS011;45945;53.350;55.922;2023-04-03T05:00:00;6.43;;;1.30;;
60068;SDS011;45945;53.350;55.922;2023-04-03T05:01:03;8.93;;;1.67;;
60068;SDS011;45945;53.350;55.922;2023-04-03T05:02:05;8.82;;;1.77;;
60068;SDS011;45945;53.350;55.922;2023-04-03T05:03:07;6.50;;;1.20;;
60068;SDS011;45945;53.350;55.922;2023-04-03T05:04:07;7.60;;;1.33;;
60068;SDS011;45945;53.350;55.922;2023-04-03T05:05:09;8.05;;;1.73;;
60068;SDS011;45945;53.350;55.922;2023-04-03T05:06:11;10.73;;;1.52;;
60068;SDS011;45945;53.350;55.922;2023-04-03T05:07:12;6.90;;;1.10;;
60068;SDS011;45945;53.350;55.922;2023-04-03T05:08:13;8.13;;;1.63;;
60068;SDS011;45945;53.350;55.922;2023-04-03T05:09:15;5.70;;;1.27;;
60068;SDS011;45945;53.350;55.922;2023-04-03T05:10:18;6.72;;;1.33;;
60068;SDS011;45945;53.350;55.922;2023-04-03T05:11:20;8.35;;;1.65;;
60068;SDS011;45945;53.350;55.922;2023-04-03T05:12:24;7.85;;;1.45;;
60068;SDS011;45945;53.350;55.922;2023-04-03T05:13:30;7.30;;;1.30;;
60068;SDS011;45945;53.350;55.922;2023-04-03T05:14:31;6.75;;;1.50;;
60068;SDS011;45945;53.350;55.922;2023-04-03T05:15:36;4.65;;;1.00;;
60068;SDS011;45945;53.350;55.922;2023-04-03T05:16:40;7.43;;;1.40;;
60068;SDS011;45945;53.350;55.922;2023-04-03T05:17:41;8.48;;;1.48;;
60068;SDS011;45945;53.350;55.922;2023-04-03T05:18:46;6.05;;;1.13;;
60068;SDS011;45945;53.350;55.922;2023-04-03T05:19:52;9.13;;;1.40;;
60068;SDS011;45945;53.350;55.922;2023-04-03T05:20:55;14.07;;;1.90;;
60068;SDS011;45945;53.350;55.922;2023-04-03T05:21:57;7.72;;;1.40;;
60068;SDS011;45945;53.350;55.922;2023-04-03T05:22:58;5.95;;;1.08;;
60068;SDS011;45945;53.350;55.922;2023-04-03T05:23:59;8.25;;;1.38;;
60068;SDS011;45945;53.350;55.922;2023-04-03T05:25:04;6.35;;;1.15;;
60068;SDS011;45945;53.350;55.922;2023-04-03T05:26:05;8.20;;;1.58;;
60068;SDS011;45945;53.350;55.922;2023-04-03T05:27:06;6.90;;;1.30;;
60068;SDS011;45945;53.350;55.922;2023-04-03T05:28:11;6.72;;;1.70;;
60068;SDS011;45945;53.350;55.922;2023-04-03T05:29:12;8.27;;;1.50;;
60068;SDS011;45945;53.350;55.922;2023-04-03T05:30:13;6.50;;;1.23;;
60068;SDS011;45945;53.350;55.922;2023-04-03T05:31:15;5.15;;;1.38;;
60068;SDS011;45945;53.350;55.922;2023-04-03T05:32:16;16.30;;;1.95;;
60068;SDS011;45945;53.350;55.922;2023-04-03T05:33:18;11.70;;;1.77;;
60068;SDS011;45945;53.350;55.922;2023-04-03T05:34:24;7.00;;;1.50;;
60068;SDS011;45945;53.350;55.922;2023-04-03T05:35:27;10.95;;;1.95;;
60068;SDS011;45945;53.350;55.922;2023-04-03T05:36:31;8.90;;;1.50;;
60068;SDS011;45945;53.350;55.922;2023-04-03T05:37:37;9.52;;;2.05;;
60068;SDS011;45945;53.350;55.922;2023-04-03T05:38:38;13.55;;;2.30;;
60068;SDS011;45945;53.350;55.922;2023-04-03T05:39:39;9.05;;;1.50;;
60068;SDS011;45945;53.350;55.922;2023-04-03T05:40:42;9.20;;;1.70;;
60068;SDS011;45945;53.350;55.922;2023-04-03T05:41:42;8.35;;;1.50;;
60068;SDS011;45945;53.350;55.922;2023-04-03T05:42:44;11.23;;;1.85;;
60068;SDS011;45945;53.350;55.922;2023-04-03T05:43:45;9.77;;;1.40;;
60068;SDS011;45945;53.350;55.922;2023-04-03T05:44:46;8.52;;;1.48;;
60068;SDS011;45945;53.350;55.922;2023-04-03T05:45:48;14.20;;;2.10;;
60068;SDS011;45945;53.350;55.922;2023-04-03T05:46:49;7.75;;;1.80;;
60068;SDS011;45945;53.350;55.922;2023-04-03T05:47:50;13.20;;;1.92;;
60068;SDS011;45945;53.350;55.922;2023-04-03T05:48:51;10.82;;;1.63;;
60068;SDS011;45945;53.350;55.922;2023-04-03T05:49:55;10.38;;;1.52;;
60068;SDS011;45945;53.350;55.922;2023-04-03T05:50:56;16.58;;;2.13;;
60068;SDS011;45945;53.350;55.922;2023-04-03T05:52:00;10.90;;;2.15;;
60068;SDS011;45945;53.350;55.922;2023-04-03T05:53:04;6.88;;;1.40;;
60068;SDS011;45945;53.350;55.922;2023-04-03T05:55:08;8.55;;;1.80;;
60068;SDS011;45945;53.350;55.922;2023-04-03T05:56:10;8.45;;;1.77;;
60068;SDS011;45945;53.350;55.922;2023-04-03T05:57:16;7.22;;;1.70;;
60068;SDS011;45945;53.350;55.922;2023-04-03T05:58:17;8.23;;;1.45;;
60068;SDS011;45945;53.350;55.922;2023-04-03T05:59:23;10.32;;;2.03;;
60068;SDS011;45945;53.350;55.922;2023-04-03T06:00:26;8.75;;;1.27;;
60068;SDS011;45945;53.350;55.922;2023-04-03T06:01:34;9.45;;;1.90;;
60068;SDS011;45945;53.350;55.922;2023-04-03T06:02:35;13.38;;;1.90;;
60068;SDS011;45945;53.350;55.922;2023-04-03T06:03:36;13.75;;;2.05;;
60068;SDS011;45945;53.350;55.922;2023-04-03T06:04:37;9.85;;;2.42;;
60068;SDS011;45945;53.350;55.922;2023-04-03T06:05:38;8.15;;;1.55;;
60068;SDS011;45945;53.350;55.922;2023-04-03T06:06:51;6.70;;;1.30;;
60068;SDS011;45945;53.350;55.922;2023-04-03T06:07:52;9.80;;;1.70;;
60068;SDS011;45945;53.350;55.922;2023-04-03T06:08:53;12.48;;;1.92;;
60068;SDS011;45945;53.350;55.922;2023-04-03T06:09:55;11.15;;;1.50;;
60068;SDS011;45945;53.350;55.922;2023-04-03T06:10:57;10.30;;;1.73;;